Aviation Digital Data Service (ADDS)

Output produced by METARs form (1301 UTC 16 July 2019)
found at http://www.aviationweather.gov/metar/data/
 
TAF RJGG 161108Z 1612/1718 12006KT 8000 -SHRA FEW008 BKN015 
     TEMPO 1612/1621 4000 -SHRA BR FEW005 BKN008 
     BECMG 1616/1618 01004KT 
     BECMG 1700/1703 16010KT